Keerbergen, Belgium
Current Conditions -  °F | °C
As of 8:20 AM on Wednesday 22 Oct 2014 (Local Time) from EBBR Reporting Station
Clear Clear  
Wind Chill: 40°   Ceiling: Unl
Heat Index: 46°   Visibility: 6mi
Dew Point: 37°   Wind: 14mph
Humidity: 71%   Direction: 280°W
Pressure: 30.09"   Gusts: NA
Location:  51°N, 4.63°E
Report Text: EBBR 220620Z 28012KT CAVOK 08/03 Q1019 NOSIG
Loading
Personal Weather Stations






























Interactive Weather Map
Tropical Storm Tracking
New forecast layout! Learn more

10-Day Weather Forecast

Advertisements
Track Severe Weather on mobile